Irene Lauritzen — WDF7328 — position and weather

sailwx.info

Track history (hours):
 
Tides and Currents Weather Stations Pressure Air Temp Water Temp Dewpoint Dewpoint Depression Visibility Wind Speed Wind Dir Waves Ship Positions

Irene Lauritzen

Owner: Salt River Construction Corporation, Tiburon, CA. More information available from US FCC via Universal Licensing System and Coast Guard Vessel Documentation Center.

Last reported at 2017-Oct-10 23:31 UTC. Time now 2017-Oct-17 16:55 UTC.
Position N 37°35' W 122°19'.

Length 15 m.

Type: Tug. MMSI: 367483370.

Date/timePositionNaut miles runAvg speedWind from/ knotsBaromVisibWave heightAir tempDewpointWater temp
2017-Oct-10 23:31N 37°35' W 122°19'0 0.7
2017-Oct-10 23:30N 37°35' W 122°19'0 0.0
2017-Oct-10 23:00N 37°35' W 122°19'0 0.0
2017-Oct-10 22:30N 37°35' W 122°19'0 0.0
2017-Oct-10 22:00N 37°35' W 122°19'0 0.0
2017-Oct-10 21:30N 37°35' W 122°19'0 0.0
2017-Oct-10 21:00N 37°35' W 122°19'0 0.0
2017-Oct-10 20:30N 37°35' W 122°19'0 0.0
2017-Oct-10 08:12N 37°35' W 122°19'0 0.2
2017-Oct-10 08:00N 37°35' W 122°19'0 0.4
2017-Oct-10 07:30N 37°36' W 122°19'0 0.4
2017-Oct-10 07:00N 37°36' W 122°19'1 1.3
2017-Oct-10 06:30N 37°36' W 122°19'2 4.1
2017-Oct-10 06:01N 37°38' W 122°19'2 4.6
2017-Oct-10 05:31N 37°40' W 122°21'3 5.6
2017-Oct-10 05:00N 37°43' W 122°21'3 5.6
2017-Oct-10 04:30N 37°46' W 122°22'3 5.2
2017-Oct-10 04:00N 37°48' W 122°24'2 4.2
2017-Oct-10 03:30N 37°49' W 122°26'3 5.5
2017-Oct-10 03:00N 37°48' W 122°23'3 6.9
2017-Oct-10 02:30N 37°44' W 122°22'4 7.1
2017-Oct-10 02:00N 37°41' W 122°20'3 6.7
2017-Oct-10 01:30N 37°38' W 122°19'2 4.3
2017-Oct-10 01:00N 37°36' W 122°19'0 0.7
2017-Oct-10 00:30N 37°35' W 122°19'0 0.0
2017-Oct-10 00:01N 37°35' W 122°19'0 0.0
2017-Oct-09 23:31N 37°35' W 122°19'0 0.0
2017-Oct-09 23:00N 37°35' W 122°19'0 0.0
2017-Oct-09 22:30N 37°35' W 122°19'0 0.0
2017-Oct-09 22:00N 37°35' W 122°19'0 0.0
2017-Oct-09 21:30N 37°35' W 122°19'0 0.2
2017-Oct-09 21:00N 37°35' W 122°19'0 0.0
2017-Oct-09 20:30N 37°35' W 122°19'0 0.0
2017-Oct-09 20:01N 37°35' W 122°19'0 0.0
2017-Oct-09 19:30N 37°35' W 122°19'0 0.0
2017-Oct-09 19:01N 37°35' W 122°19'0 0.0
2017-Oct-09 18:31N 37°35' W 122°19'0 0.0
2017-Oct-08 09:40N 37°35' W 122°19'0 0.0
2017-Oct-08 09:30N 37°35' W 122°19'0 0.0
2017-Oct-08 09:01N 37°35' W 122°19'0 0.4
2017-Oct-08 08:30N 37°36' W 122°19'0 0.4
2017-Oct-08 08:01N 37°35' W 122°19'0 0.8
2017-Oct-08 07:31N 37°36' W 122°19'1 2.7
2017-Oct-08 07:00N 37°37' W 122°18'4 7.0
2017-Oct-08 06:31N 37°40' W 122°20'4 7.0
2017-Oct-08 06:00N 37°44' W 122°21'4 7.6
2017-Oct-08 05:30N 37°47' W 122°23'3 5.7
2017-Oct-08 05:00N 37°49' W 122°25'2 3.7
2017-Oct-08 04:30N 37°48' W 122°23'2 3.4
2017-Oct-08 04:00N 37°47' W 122°23'2 3.1
2017-Oct-08 03:30N 37°45' W 122°22'3 5.1
2017-Oct-08 03:00N 37°43' W 122°21'3 5.5
2017-Oct-08 02:30N 37°40' W 122°20'3 5.1
2017-Oct-08 02:00N 37°38' W 122°19'2 3.9
2017-Oct-08 01:30N 37°36' W 122°19'1 1.0
2017-Oct-08 01:00N 37°35' W 122°19'0 0.1
2017-Oct-08 00:30N 37°35' W 122°19'0 0.0
2017-Oct-07 07:12N 37°35' W 122°19'0 0.2
2017-Oct-07 07:00N 37°35' W 122°19'0 0.0
2017-Oct-07 06:30N 37°35' W 122°19'0 0.7
2017-Oct-07 05:57N 37°36' W 122°19'0 0.5
2017-Oct-07 05:30N 37°36' W 122°18'3 5.3
2017-Oct-07 05:00N 37°38' W 122°20'3 6.0
2017-Oct-07 04:30N 37°41' W 122°21'3 5.6
2017-Oct-07 04:00N 37°44' W 122°21'3 6.9
2017-Oct-07 03:30N 37°47' W 122°23'3 5.9
2017-Oct-07 03:00N 37°49' W 122°26'2 3.8
2017-Oct-07 02:30N 37°48' W 122°24'3 5.9
2017-Oct-07 02:00N 37°46' W 122°22'3 6.3
2017-Oct-07 01:30N 37°43' W 122°21'3 6.3
2017-Oct-07 01:00N 37°40' W 122°20'3 5.9
2017-Oct-07 00:30N 37°37' W 122°19'1 0.1
2017-Oct-06 07:49N 37°35' W 122°19'0 0.1
2017-Oct-06 07:30N 37°35' W 122°19'0 0.8
2017-Oct-06 07:00N 37°36' W 122°19'0 0.8
2017-Oct-06 06:30N 37°35' W 122°19'0 0.8
2017-Oct-06 06:00N 37°36' W 122°19'1 1.9
2017-Oct-06 05:30N 37°37' W 122°18'2 4.1
2017-Oct-06 05:01N 37°38' W 122°20'2 3.7
2017-Oct-06 04:30N 37°40' W 122°20'3 6.9
2017-Oct-06 04:00N 37°44' W 122°21'4 7.7
2017-Oct-06 03:30N 37°47' W 122°23'3 5.8
2017-Oct-06 03:00N 37°49' W 122°25'2 4.0
2017-Oct-06 02:30N 37°48' W 122°23'3 5.3
2017-Oct-06 02:00N 37°46' W 122°22'3 5.7
2017-Oct-06 01:30N 37°43' W 122°21'3 6.0
2017-Oct-06 01:00N 37°40' W 122°20'3 6.0
2017-Oct-06 00:30N 37°37' W 122°19'2 3.3
2017-Oct-06 00:00N 37°35' W 122°19'0 0.1
2017-Oct-05 23:30N 37°35' W 122°19'0 0.0
2017-Oct-05 23:00N 37°35' W 122°19'0 0.2
2017-Oct-05 22:30N 37°35' W 122°19'0 0.0
2017-Oct-05 22:00N 37°35' W 122°19'0 0.0
2017-Oct-05 21:30N 37°35' W 122°19'0 0.0
2017-Oct-05 21:00N 37°35' W 122°19'0 0.0
2017-Oct-05 20:30N 37°35' W 122°19'0 0.0
2017-Oct-05 07:25N 37°35' W 122°19'0 0.8
2017-Oct-05 07:00N 37°36' W 122°19'0 0.6
2017-Oct-05 06:30N 37°35' W 122°19'0 0.8
2017-Oct-05 05:59N 37°36' W 122°19'2 3.1
2017-Oct-05 05:31N 37°37' W 122°19'3 5.9
2017-Oct-05 05:00N 37°40' W 122°20'3 6.8
2017-Oct-05 04:30N 37°43' W 122°21'3 6.6
2017-Oct-05 04:00N 37°46' W 122°22'3 6.7
2017-Oct-05 03:30N 37°49' W 122°25'1 1.9
2017-Oct-05 03:00N 37°49' W 122°24'2 4.0
2017-Oct-05 02:30N 37°47' W 122°23'2 4.6
2017-Oct-05 02:01N 37°45' W 122°22'3 5.0
2017-Oct-05 01:30N 37°42' W 122°21'3 5.5
2017-Oct-05 01:00N 37°40' W 122°20'3 5.4
2017-Oct-05 00:30N 37°37' W 122°19'2 3.3
2017-Oct-05 00:00N 37°36' W 122°19'0 0.0
2017-Oct-04 11:17N 37°35' W 122°19'0 0.1
2017-Oct-04 11:00N 37°35' W 122°19'0 0.8
2017-Oct-04 10:30N 37°36' W 122°19'0 0.4
2017-Oct-04 10:00N 37°36' W 122°19'0 0.8
2017-Oct-04 09:30N 37°36' W 122°19'2 4.5
2017-Oct-04 09:00N 37°38' W 122°19'2 4.7
2017-Oct-04 08:30N 37°40' W 122°20'2 4.6
2017-Oct-04 08:00N 37°43' W 122°21'2 4.6
2017-Oct-04 07:30N 37°45' W 122°22'2 4.4
2017-Oct-04 07:00N 37°47' W 122°23'2 4.9
2017-Oct-04 06:30N 37°49' W 122°24'0 0.2
2017-Oct-04 06:00N 37°49' W 122°24'2 4.7
2017-Oct-04 05:30N 37°47' W 122°23'2 3.6
2017-Oct-04 05:00N 37°45' W 122°22'2 3.6
2017-Oct-04 04:30N 37°44' W 122°21'2 3.5
2017-Oct-04 04:00N 37°42' W 122°21'2 3.5
2017-Oct-04 03:30N 37°40' W 122°20'2 3.6
2017-Oct-04 03:00N 37°39' W 122°19'2 3.6
2017-Oct-04 02:30N 37°37' W 122°18'1 2.8
2017-Oct-04 02:00N 37°35' W 122°19'0 0.0
2017-Oct-04 01:30N 37°35' W 122°19'0 0.0
2017-Oct-03 03:55N 37°35' W 122°19'0 0.1
2017-Oct-03 03:30N 37°35' W 122°19'1 1.4
2017-Oct-03 03:00N 37°36' W 122°18'3 6.4
2017-Oct-03 02:30N 37°39' W 122°19'4 8.7
2017-Oct-03 02:01N 37°43' W 122°21'4 9.0
2017-Oct-03 01:31N 37°47' W 122°23'3 5.4
2017-Oct-03 01:00N 37°49' W 122°25'2 4.7
2017-Oct-03 00:31N 37°48' W 122°23'3 6.3
2017-Oct-03 00:01N 37°45' W 122°22'3 6.6
2017-Oct-02 23:30N 37°42' W 122°21'3 6.8
2017-Oct-02 23:00N 37°39' W 122°19'3 5.9
2017-Oct-02 22:30N 37°36' W 122°19'0 0.5
2017-Oct-02 22:00N 37°35' W 122°19'  
Track history (hours):
 
Tides and Currents Weather Stations Pressure Air Temp Water Temp Dewpoint Dewpoint Depression Visibility Wind Speed Wind Dir Waves Ship Positions

Irene Lauritzen

Owner: Salt River Construction Corporation, Tiburon, CA. More information available from US FCC via Universal Licensing System and Coast Guard Vessel Documentation Center.

Last reported at 2017-Oct-10 23:31 UTC. Time now 2017-Oct-17 16:55 UTC.
Position N 37°35' W 122°19'.

Length 15 m.

Type: Tug. MMSI: 367483370.

Date/timePositionNaut miles runAvg speedWind from/ knotsBaromVisibWave heightAir tempDewpointWater temp
2017-Oct-10 23:31N 37°35' W 122°19'0 0.7
2017-Oct-10 23:30N 37°35' W 122°19'0 0.0
2017-Oct-10 23:00N 37°35' W 122°19'0 0.0
2017-Oct-10 22:30N 37°35' W 122°19'0 0.0
2017-Oct-10 22:00N 37°35' W 122°19'0 0.0
2017-Oct-10 21:30N 37°35' W 122°19'0 0.0
2017-Oct-10 21:00N 37°35' W 122°19'0 0.0
2017-Oct-10 20:30N 37°35' W 122°19'0 0.0
2017-Oct-10 08:12N 37°35' W 122°19'0 0.2
2017-Oct-10 08:00N 37°35' W 122°19'0 0.4
2017-Oct-10 07:30N 37°36' W 122°19'0 0.4
2017-Oct-10 07:00N 37°36' W 122°19'1 1.3
2017-Oct-10 06:30N 37°36' W 122°19'2 4.1
2017-Oct-10 06:01N 37°38' W 122°19'2 4.6
2017-Oct-10 05:31N 37°40' W 122°21'3 5.6
2017-Oct-10 05:00N 37°43' W 122°21'3 5.6
2017-Oct-10 04:30N 37°46' W 122°22'3 5.2
2017-Oct-10 04:00N 37°48' W 122°24'2 4.2
2017-Oct-10 03:30N 37°49' W 122°26'3 5.5
2017-Oct-10 03:00N 37°48' W 122°23'3 6.9
2017-Oct-10 02:30N 37°44' W 122°22'4 7.1
2017-Oct-10 02:00N 37°41' W 122°20'3 6.7
2017-Oct-10 01:30N 37°38' W 122°19'2 4.3
2017-Oct-10 01:00N 37°36' W 122°19'0 0.7
2017-Oct-10 00:30N 37°35' W 122°19'0 0.0
2017-Oct-10 00:01N 37°35' W 122°19'0 0.0
2017-Oct-09 23:31N 37°35' W 122°19'0 0.0
2017-Oct-09 23:00N 37°35' W 122°19'0 0.0
2017-Oct-09 22:30N 37°35' W 122°19'0 0.0
2017-Oct-09 22:00N 37°35' W 122°19'0 0.0
2017-Oct-09 21:30N 37°35' W 122°19'0 0.2
2017-Oct-09 21:00N 37°35' W 122°19'0 0.0
2017-Oct-09 20:30N 37°35' W 122°19'0 0.0
2017-Oct-09 20:01N 37°35' W 122°19'0 0.0
2017-Oct-09 19:30N 37°35' W 122°19'0 0.0
2017-Oct-09 19:01N 37°35' W 122°19'0 0.0
2017-Oct-09 18:31N 37°35' W 122°19'0 0.0
2017-Oct-08 09:40N 37°35' W 122°19'0 0.0
2017-Oct-08 09:30N 37°35' W 122°19'0 0.0
2017-Oct-08 09:01N 37°35' W 122°19'0 0.4
2017-Oct-08 08:30N 37°36' W 122°19'0 0.4
2017-Oct-08 08:01N 37°35' W 122°19'0 0.8
2017-Oct-08 07:31N 37°36' W 122°19'1 2.7
2017-Oct-08 07:00N 37°37' W 122°18'4 7.0
2017-Oct-08 06:31N 37°40' W 122°20'4 7.0
2017-Oct-08 06:00N 37°44' W 122°21'4 7.6
2017-Oct-08 05:30N 37°47' W 122°23'3 5.7
2017-Oct-08 05:00N 37°49' W 122°25'2 3.7
2017-Oct-08 04:30N 37°48' W 122°23'2 3.4
2017-Oct-08 04:00N 37°47' W 122°23'2 3.1
2017-Oct-08 03:30N 37°45' W 122°22'3 5.1
2017-Oct-08 03:00N 37°43' W 122°21'3 5.5
2017-Oct-08 02:30N 37°40' W 122°20'3 5.1
2017-Oct-08 02:00N 37°38' W 122°19'2 3.9
2017-Oct-08 01:30N 37°36' W 122°19'1 1.0
2017-Oct-08 01:00N 37°35' W 122°19'0 0.1
2017-Oct-08 00:30N 37°35' W 122°19'0 0.0
2017-Oct-07 07:12N 37°35' W 122°19'0 0.2
2017-Oct-07 07:00N 37°35' W 122°19'0 0.0
2017-Oct-07 06:30N 37°35' W 122°19'0 0.7
2017-Oct-07 05:57N 37°36' W 122°19'0 0.5
2017-Oct-07 05:30N 37°36' W 122°18'3 5.3
2017-Oct-07 05:00N 37°38' W 122°20'3 6.0
2017-Oct-07 04:30N 37°41' W 122°21'3 5.6
2017-Oct-07 04:00N 37°44' W 122°21'3 6.9
2017-Oct-07 03:30N 37°47' W 122°23'3 5.9
2017-Oct-07 03:00N 37°49' W 122°26'2 3.8
2017-Oct-07 02:30N 37°48' W 122°24'3 5.9
2017-Oct-07 02:00N 37°46' W 122°22'3 6.3
2017-Oct-07 01:30N 37°43' W 122°21'3 6.3
2017-Oct-07 01:00N 37°40' W 122°20'3 5.9
2017-Oct-07 00:30N 37°37' W 122°19'1 0.1
2017-Oct-06 07:49N 37°35' W 122°19'0 0.1
2017-Oct-06 07:30N 37°35' W 122°19'0 0.8
2017-Oct-06 07:00N 37°36' W 122°19'0 0.8
2017-Oct-06 06:30N 37°35' W 122°19'0 0.8
2017-Oct-06 06:00N 37°36' W 122°19'1 1.9
2017-Oct-06 05:30N 37°37' W 122°18'2 4.1
2017-Oct-06 05:01N 37°38' W 122°20'2 3.7
2017-Oct-06 04:30N 37°40' W 122°20'3 6.9
2017-Oct-06 04:00N 37°44' W 122°21'4 7.7
2017-Oct-06 03:30N 37°47' W 122°23'3 5.8
2017-Oct-06 03:00N 37°49' W 122°25'2 4.0
2017-Oct-06 02:30N 37°48' W 122°23'3 5.3
2017-Oct-06 02:00N 37°46' W 122°22'3 5.7
2017-Oct-06 01:30N 37°43' W 122°21'3 6.0
2017-Oct-06 01:00N 37°40' W 122°20'3 6.0
2017-Oct-06 00:30N 37°37' W 122°19'2 3.3
2017-Oct-06 00:00N 37°35' W 122°19'0 0.1
2017-Oct-05 23:30N 37°35' W 122°19'0 0.0
2017-Oct-05 23:00N 37°35' W 122°19'0 0.2
2017-Oct-05 22:30N 37°35' W 122°19'0 0.0
2017-Oct-05 22:00N 37°35' W 122°19'0 0.0
2017-Oct-05 21:30N 37°35' W 122°19'0 0.0
2017-Oct-05 21:00N 37°35' W 122°19'0 0.0
2017-Oct-05 20:30N 37°35' W 122°19'0 0.0
2017-Oct-05 07:25N 37°35' W 122°19'0 0.8
2017-Oct-05 07:00N 37°36' W 122°19'0 0.6
2017-Oct-05 06:30N 37°35' W 122°19'0 0.8
2017-Oct-05 05:59N 37°36' W 122°19'2 3.1
2017-Oct-05 05:31N 37°37' W 122°19'3 5.9
2017-Oct-05 05:00N 37°40' W 122°20'3 6.8
2017-Oct-05 04:30N 37°43' W 122°21'3 6.6
2017-Oct-05 04:00N 37°46' W 122°22'3 6.7
2017-Oct-05 03:30N 37°49' W 122°25'1 1.9
2017-Oct-05 03:00N 37°49' W 122°24'2 4.0
2017-Oct-05 02:30N 37°47' W 122°23'2 4.6
2017-Oct-05 02:01N 37°45' W 122°22'3 5.0
2017-Oct-05 01:30N 37°42' W 122°21'3 5.5
2017-Oct-05 01:00N 37°40' W 122°20'3 5.4
2017-Oct-05 00:30N 37°37' W 122°19'2 3.3
2017-Oct-05 00:00N 37°36' W 122°19'0 0.0
2017-Oct-04 11:17N 37°35' W 122°19'0 0.1
2017-Oct-04 11:00N 37°35' W 122°19'0 0.8
2017-Oct-04 10:30N 37°36' W 122°19'0 0.4
2017-Oct-04 10:00N 37°36' W 122°19'0 0.8
2017-Oct-04 09:30N 37°36' W 122°19'2 4.5
2017-Oct-04 09:00N 37°38' W 122°19'2 4.7
2017-Oct-04 08:30N 37°40' W 122°20'2 4.6
2017-Oct-04 08:00N 37°43' W 122°21'2 4.6
2017-Oct-04 07:30N 37°45' W 122°22'2 4.4
2017-Oct-04 07:00N 37°47' W 122°23'2 4.9
2017-Oct-04 06:30N 37°49' W 122°24'0 0.2
2017-Oct-04 06:00N 37°49' W 122°24'2 4.7
2017-Oct-04 05:30N 37°47' W 122°23'2 3.6
2017-Oct-04 05:00N 37°45' W 122°22'2 3.6
2017-Oct-04 04:30N 37°44' W 122°21'2 3.5
2017-Oct-04 04:00N 37°42' W 122°21'2 3.5
2017-Oct-04 03:30N 37°40' W 122°20'2 3.6
2017-Oct-04 03:00N 37°39' W 122°19'2 3.6
2017-Oct-04 02:30N 37°37' W 122°18'1 2.8
2017-Oct-04 02:00N 37°35' W 122°19'0 0.0
2017-Oct-04 01:30N 37°35' W 122°19'0 0.0
2017-Oct-03 03:55N 37°35' W 122°19'0 0.1
2017-Oct-03 03:30N 37°35' W 122°19'1 1.4
2017-Oct-03 03:00N 37°36' W 122°18'3 6.4
2017-Oct-03 02:30N 37°39' W 122°19'4 8.7
2017-Oct-03 02:01N 37°43' W 122°21'4 9.0
2017-Oct-03 01:31N 37°47' W 122°23'3 5.4
2017-Oct-03 01:00N 37°49' W 122°25'2 4.7
2017-Oct-03 00:31N 37°48' W 122°23'3 6.3
2017-Oct-03 00:01N 37°45' W 122°22'3 6.6
2017-Oct-02 23:30N 37°42' W 122°21'3 6.8
2017-Oct-02 23:00N 37°39' W 122°19'3 5.9
2017-Oct-02 22:30N 37°36' W 122°19'0 0.5
2017-Oct-02 22:00N 37°35' W 122°19'  

Dump ship's entire track history